Time,TemperatureF,DewpointF,PressureIn,WindDirection,WindDirectionDegrees,WindSpeedMPH,WindSpeedGustMPH,Humidity,HourlyPrecipIn,Conditions,Clouds,dailyrainin,SoftwareType,DateUTC
2013-07-14 00:00:00,71.4,66.7,30.08,NNE,23,0.0,0.0,85,0.00,,,0.00,WUHU216TE923,2013-07-14 04:00:00,
2013-07-14 00:01:00,71.4,66.7,30.08,NNE,23,0.0,0.0,85,0.00,,,0.00,WUHU216TE923,2013-07-14 04:01:00,
2013-07-14 00:02:00,71.4,66.7,30.08,NNE,23,0.0,0.0,85,0.00,,,0.00,WUHU216TE923,2013-07-14 04:02:00,
2013-07-14 00:07:00,71.4,66.7,30.08,NNE,23,0.0,0.0,85,0.00,,,0.00,WUHU216TE923,2013-07-14 04:07:00,
2013-07-14 00:12:00,71.4,66.7,30.08,NNE,23,0.0,0.0,85,0.00,,,0.00,WUHU216TE923,2013-07-14 04:12:00,
2013-07-14 00:17:00,71.2,66.5,30.08,NNE,23,0.0,0.0,85,0.00,,,0.00,WUHU216TE923,2013-07-14 04:17:00,
2013-07-14 00:22:00,71.1,66.4,30.08,NNE,23,0.1,0.1,85,0.00,,,0.00,WUHU216TE923,2013-07-14 04:22:00,
2013-07-14 00:27:00,70.9,66.2,30.08,NNE,23,0.1,0.1,85,0.00,,,0.00,WUHU216TE923,2013-07-14 04:27:00,
2013-07-14 00:32:00,70.7,66.0,30.08,NNE,23,0.0,0.1,85,0.00,,,0.00,WUHU216TE923,2013-07-14 04:32:00,
2013-07-14 00:37:00,70.7,66.0,30.08,NNE,23,0.0,0.0,85,0.00,,,0.00,WUHU216TE923,2013-07-14 04:37:00,
2013-07-14 00:42:00,70.7,66.0,30.08,NNE,23,0.0,0.0,85,0.00,,,0.00,WUHU216TE923,2013-07-14 04:42:00,
2013-07-14 00:47:00,70.7,66.0,30.08,NNE,23,0.1,1.4,85,0.00,,,0.00,WUHU216TE923,2013-07-14 04:47:00,
2013-07-14 00:52:00,70.5,65.8,30.08,NNE,23,0.8,1.6,85,0.00,,,0.00,WUHU216TE923,2013-07-14 04:52:00,
2013-07-14 00:57:00,70.3,65.6,30.08,NNE,23,0.9,1.6,85,0.00,,,0.00,WUHU216TE923,2013-07-14 04:57:00,
2013-07-14 01:02:00,70.3,65.6,30.08,NNE,23,0.2,0.9,85,0.00,,,0.00,WUHU216TE923,2013-07-14 05:02:00,
2013-07-14 01:07:00,70.3,65.6,30.08,NNE,23,0.0,0.2,85,0.00,,,0.00,WUHU216TE923,2013-07-14 05:07:00,
2013-07-14 01:12:00,70.3,65.9,30.08,NNE,23,0.0,0.0,86,0.00,,,0.00,WUHU216TE923,2013-07-14 05:12:00,
2013-07-14 01:17:00,70.3,65.9,30.08,NNE,23,0.0,0.0,86,0.00,,,0.00,WUHU216TE923,2013-07-14 05:17:00,
2013-07-14 01:22:00,70.3,65.9,30.08,NNE,23,0.0,0.0,86,0.00,,,0.00,WUHU216TE923,2013-07-14 05:22:00,
2013-07-14 01:27:00,70.2,65.8,30.08,NNE,23,0.0,0.0,86,0.00,,,0.00,WUHU216TE923,2013-07-14 05:27:00,
2013-07-14 01:32:00,70.3,65.9,30.08,NNE,23,0.0,0.0,86,0.00,,,0.00,WUHU216TE923,2013-07-14 05:32:00,
2013-07-14 01:37:00,70.3,65.9,30.08,NNE,23,0.0,0.0,86,0.00,,,0.00,WUHU216TE923,2013-07-14 05:37:00,
2013-07-14 01:42:00,70.3,65.9,30.08,NNE,23,0.0,0.0,86,0.00,,,0.00,WUHU216TE923,2013-07-14 05:42:00,
2013-07-14 01:47:00,70.2,65.8,30.08,NNE,23,0.0,0.0,86,0.00,,,0.00,WUHU216TE923,2013-07-14 05:47:00,
2013-07-14 01:52:00,70.2,65.8,30.08,NNE,23,0.0,0.0,86,0.00,,,0.00,WUHU216TE923,2013-07-14 05:52:00,
2013-07-14 01:57:00,70.2,65.8,30.08,NNE,23,0.0,0.0,86,0.00,,,0.00,WUHU216TE923,2013-07-14 05:57:00,
2013-07-14 02:02:00,69.8,65.4,30.08,NNE,23,0.3,0.3,86,0.00,,,0.00,WUHU216TE923,2013-07-14 06:02:00,
2013-07-14 02:07:00,69.8,65.4,30.08,NNE,23,0.3,0.3,86,0.00,,,0.00,WUHU216TE923,2013-07-14 06:07:00,
2013-07-14 02:12:00,69.6,65.2,30.08,NNE,23,0.1,0.3,86,0.00,,,0.00,WUHU216TE923,2013-07-14 06:12:00,
2013-07-14 02:17:00,69.6,65.2,30.08,NNE,23,0.0,0.1,86,0.00,,,0.00,WUHU216TE923,2013-07-14 06:17:00,
2013-07-14 02:22:00,69.6,65.2,30.08,NNE,23,0.0,0.0,86,0.00,,,0.00,WUHU216TE923,2013-07-14 06:22:00,
2013-07-14 02:27:00,69.6,65.2,30.08,NNE,23,0.0,0.0,86,0.00,,,0.00,WUHU216TE923,2013-07-14 06:27:00,
2013-07-14 02:32:00,69.6,65.2,30.08,NNE,23,0.0,0.0,86,0.00,,,0.00,WUHU216TE923,2013-07-14 06:32:00,
2013-07-14 02:37:00,69.6,65.2,30.08,NNE,23,0.7,1.4,86,0.00,,,0.00,WUHU216TE923,2013-07-14 06:37:00,
2013-07-14 02:42:00,69.3,64.9,30.08,NNE,23,1.7,2.0,86,0.00,,,0.00,WUHU216TE923,2013-07-14 06:42:00,
2013-07-14 02:47:00,69.3,64.9,30.08,NNE,23,1.2,2.0,86,0.00,,,0.00,WUHU216TE923,2013-07-14 06:47:00,
2013-07-14 02:52:00,69.3,64.9,30.08,NNE,23,1.2,1.2,86,0.00,,,0.00,WUHU216TE923,2013-07-14 06:52:00,
2013-07-14 02:57:00,68.9,64.6,30.08,NNE,23,0.0,0.0,86,0.00,,,0.00,WUHU216TE923,2013-07-14 06:57:00,
2013-07-14 03:02:00,69.3,64.9,30.09,NNE,23,0.0,0.0,86,0.00,,,0.00,WUHU216TE923,2013-07-14 07:02:00,
2013-07-14 03:07:00,69.3,64.9,30.09,NNE,23,0.0,0.0,86,0.00,,,0.00,WUHU216TE923,2013-07-14 07:07:00,
2013-07-14 03:12:00,69.3,64.9,30.09,NNE,23,0.0,0.0,86,0.00,,,0.00,WUHU216TE923,2013-07-14 07:12:00,
2013-07-14 03:17:00,69.1,64.7,30.09,NNE,23,0.0,0.0,86,0.00,,,0.00,WUHU216TE923,2013-07-14 07:17:00,
2013-07-14 03:22:00,69.1,64.7,30.08,NNE,23,0.0,0.0,86,0.00,,,0.00,WUHU216TE923,2013-07-14 07:22:00,
2013-07-14 03:27:00,69.1,64.7,30.08,NNE,23,0.0,0.0,86,0.00,,,0.00,WUHU216TE923,2013-07-14 07:27:00,
2013-07-14 03:32:00,69.3,65.3,30.08,NNE,23,0.0,0.0,87,0.00,,,0.00,WUHU216TE923,2013-07-14 07:32:00,
2013-07-14 03:37:00,69.3,65.3,30.08,NNE,23,0.0,1.3,87,0.00,,,0.00,WUHU216TE923,2013-07-14 07:37:00,
2013-07-14 03:42:00,69.3,64.9,30.09,NNE,23,0.1,1.3,86,0.00,,,0.00,WUHU216TE923,2013-07-14 07:42:00,
2013-07-14 14:19:00,86.2,75.1,30.18,ENE,68,2.9,2.9,69,0.00,,,0.00,WUHU216TE923,2013-07-14 18:19:00,
2013-07-14 14:24:00,86.2,75.1,30.18,NNE,23,2.9,7.2,69,0.00,,,0.00,WUHU216TE923,2013-07-14 18:24:00,
2013-07-14 14:29:00,86.0,74.5,30.18,NNE,23,3.2,7.2,68,0.00,,,0.00,WUHU216TE923,2013-07-14 18:29:00,
2013-07-14 14:34:00,86.0,74.0,30.18,NNE,23,3.5,5.4,67,0.00,,,0.00,WUHU216TE923,2013-07-14 18:34:00,
2013-07-14 14:39:00,86.0,74.0,30.17,South,180,2.1,4.4,67,0.00,,,0.00,WUHU216TE923,2013-07-14 18:39:00,
2013-07-14 14:44:00,85.8,73.8,30.17,ESE,113,1.5,2.5,67,0.00,,,0.00,WUHU216TE923,2013-07-14 18:44:00,
2013-07-14 14:49:00,85.3,73.4,30.17,ESE,113,1.2,2.5,67,0.00,,,0.00,WUHU216TE923,2013-07-14 18:49:00,
2013-07-14 14:54:00,84.9,73.0,30.17,ESE,113,1.0,2.0,67,0.00,,,0.00,WUHU216TE923,2013-07-14 18:54:00,
2013-07-14 14:59:00,85.3,74.2,30.18,West,270,0.7,2.0,69,0.00,,,0.00,WUHU216TE923,2013-07-14 18:59:00,
2013-07-14 15:04:00,85.8,74.3,30.18,West,270,1.0,2.8,68,0.00,,,0.00,WUHU216TE923,2013-07-14 19:04:00,
2013-07-14 15:09:00,85.8,74.3,30.18,ESE,113,1.7,2.8,68,0.00,,,0.00,WUHU216TE923,2013-07-14 19:09:00,
2013-07-14 15:14:00,85.8,73.8,30.18,NNE,23,2.1,5.1,67,0.00,,,0.00,WUHU216TE923,2013-07-14 19:14:00,
2013-07-14 15:19:00,85.8,74.3,30.17,NE,45,1.5,5.1,68,0.00,,,0.00,WUHU216TE923,2013-07-14 19:19:00,
2013-07-14 15:24:00,86.0,74.5,30.17,WSW,248,1.7,2.1,68,0.00,,,0.00,WUHU216TE923,2013-07-14 19:24:00,
2013-07-14 15:29:00,85.8,73.8,30.17,NE,45,1.9,5.5,67,0.00,,,0.00,WUHU216TE923,2013-07-14 19:29:00,
2013-07-14 15:34:00,85.5,73.1,30.17,ESE,113,2.4,5.6,66,0.00,,,0.00,WUHU216TE923,2013-07-14 19:34:00,
2013-07-14 15:39:00,85.5,74.0,30.17,SE,135,2.3,5.6,68,0.00,,,0.00,WUHU216TE923,2013-07-14 19:39:00,
2013-07-14 15:44:00,85.6,74.1,30.17,ESE,113,2.1,4.9,68,0.00,,,0.00,WUHU216TE923,2013-07-14 19:44:00,
2013-07-14 15:49:00,86.0,74.5,30.17,ESE,113,2.6,6.0,68,0.00,,,0.00,WUHU216TE923,2013-07-14 19:49:00,
2013-07-14 15:54:00,85.8,73.8,30.17,East,90,2.9,6.0,67,0.00,,,0.00,WUHU216TE923,2013-07-14 19:54:00,
2013-07-14 15:59:00,85.8,74.3,30.16,NNE,23,2.3,2.9,68,0.00,,,0.00,WUHU216TE923,2013-07-14 19:59:00,
2013-07-14 16:04:00,86.0,74.0,30.16,SE,135,2.3,2.3,67,0.00,,,0.00,WUHU216TE923,2013-07-14 20:04:00,
2013-07-14 16:09:00,86.2,75.1,30.16,ENE,68,2.4,4.4,69,0.00,,,0.00,WUHU216TE923,2013-07-14 20:09:00,
2013-07-14 16:14:00,86.0,74.5,30.16,East,90,2.6,4.4,68,0.00,,,0.00,WUHU216TE923,2013-07-14 20:14:00,
2013-07-14 16:19:00,86.0,74.9,30.15,North,0,2.2,3.8,69,0.00,,,0.00,WUHU216TE923,2013-07-14 20:19:00,
2013-07-14 16:24:00,86.2,74.2,30.15,NNE,23,2.4,3.8,67,0.00,,,0.00,WUHU216TE923,2013-07-14 20:24:00,
2013-07-14 16:29:00,85.8,74.3,30.15,NNE,23,2.7,3.5,68,0.00,,,0.00,WUHU216TE923,2013-07-14 20:29:00,
2013-07-14 16:34:00,85.6,74.5,30.15,NNE,23,2.0,2.9,69,0.00,,,0.00,WUHU216TE923,2013-07-14 20:34:00,
2013-07-14 16:39:00,85.8,74.7,30.14,ESE,113,1.5,2.4,69,0.00,,,0.00,WUHU216TE923,2013-07-14 20:39:00,
2013-07-14 16:44:00,85.8,73.8,30.14,ESE,113,2.0,2.3,67,0.00,,,0.00,WUHU216TE923,2013-07-14 20:44:00,
2013-07-14 16:49:00,86.0,74.0,30.14,ESE,113,1.6,2.3,67,0.00,,,0.00,WUHU216TE923,2013-07-14 20:49:00,
2013-07-14 16:54:00,86.0,74.5,30.14,West,270,1.0,1.6,68,0.00,,,0.00,WUHU216TE923,2013-07-14 20:54:00,
2013-07-14 16:59:00,85.8,74.7,30.14,SE,135,1.1,2.9,69,0.00,,,0.00,WUHU216TE923,2013-07-14 20:59:00,
2013-07-14 17:04:00,86.2,74.7,30.14,West,270,1.3,2.9,68,0.00,,,0.00,WUHU216TE923,2013-07-14 21:04:00,
2013-07-14 17:09:00,86.0,74.5,30.14,ENE,68,1.8,3.6,68,0.00,,,0.00,WUHU216TE923,2013-07-14 21:09:00,
2013-07-14 17:14:00,86.0,74.0,30.14,NE,45,2.5,3.9,67,0.00,,,0.00,WUHU216TE923,2013-07-14 21:14:00,
2013-07-14 17:19:00,85.6,73.7,30.15,NNE,23,2.6,3.9,67,0.00,,,0.00,WUHU216TE923,2013-07-14 21:19:00,
2013-07-14 17:24:00,85.5,74.0,30.15,NNE,23,2.3,3.6,68,0.00,,,0.00,WUHU216TE923,2013-07-14 21:24:00,
2013-07-14 17:29:00,85.3,73.8,30.15,ENE,68,2.4,6.8,68,0.00,,,0.00,WUHU216TE923,2013-07-14 21:29:00,
2013-07-14 17:34:00,84.6,74.4,30.15,East,90,4.2,7.4,71,0.00,,,0.00,WUHU216TE923,2013-07-14 21:34:00,
2013-07-14 17:39:00,82.8,74.3,30.16,NNE,23,5.8,7.4,75,0.00,,,0.00,WUHU216TE923,2013-07-14 21:39:00,
2013-07-14 17:44:00,81.9,73.8,30.16,NE,45,4.6,5.8,76,0.00,,,0.00,WUHU216TE923,2013-07-14 21:44:00,
2013-07-14 17:49:00,81.3,73.9,30.16,East,90,2.5,4.7,78,0.02,,,0.02,WUHU216TE923,2013-07-14 21:49:00,
2013-07-14 17:54:00,81.1,74.1,30.16,ENE,68,1.1,2.5,79,0.02,,,0.02,WUHU216TE923,2013-07-14 21:54:00,
2013-07-14 17:59:00,81.1,74.5,30.15,ESE,113,0.1,1.1,80,0.02,,,0.02,WUHU216TE923,2013-07-14 21:59:00,
2013-07-14 18:04:00,81.1,74.8,30.15,NNE,23,0.4,1.0,81,0.02,,,0.02,WUHU216TE923,2013-07-14 22:04:00,
2013-07-14 18:09:00,81.0,74.7,30.15,NNE,23,0.9,1.1,81,0.02,,,0.02,WUHU216TE923,2013-07-14 22:09:00,
2013-07-14 18:14:00,81.0,75.1,30.15,NE,45,1.1,1.5,82,0.02,,,0.02,WUHU216TE923,2013-07-14 22:14:00,
2013-07-14 18:19:00,81.0,74.7,30.14,NE,45,1.0,1.6,81,0.02,,,0.02,WUHU216TE923,2013-07-14 22:19:00,
2013-07-14 18:24:00,80.8,74.5,30.14,NNE,23,1.2,3.0,81,0.02,,,0.02,WUHU216TE923,2013-07-14 22:24:00,
2013-07-14 18:29:00,80.8,74.5,30.14,NNE,23,1.1,3.0,81,0.02,,,0.02,WUHU216TE923,2013-07-14 22:29:00,
2013-07-14 18:34:00,80.8,74.5,30.14,NNE,23,1.1,3.0,81,0.02,,,0.02,WUHU216TE923,2013-07-14 22:34:00,
2013-07-14 18:39:00,80.6,74.7,30.14,ENE,68,0.8,1.1,82,0.00,,,0.02,WUHU216TE923,2013-07-14 22:39:00,
2013-07-14 18:44:00,80.6,75.0,30.14,ENE,68,0.2,0.8,83,0.00,,,0.02,WUHU216TE923,2013-07-14 22:44:00,
2013-07-14 18:49:00,80.4,74.8,30.14,ENE,68,0.1,0.2,83,0.00,,,0.02,WUHU216TE923,2013-07-14 22:49:00,
2013-07-14 18:54:00,80.4,74.5,30.14,East,90,0.3,1.6,82,0.00,,,0.02,WUHU216TE923,2013-07-14 22:54:00,
2013-07-14 18:59:00,80.6,74.7,30.14,NNE,23,0.7,2.4,82,0.00,,,0.02,WUHU216TE923,2013-07-14 22:59:00,
2013-07-14 19:04:00,80.6,74.3,30.14,NE,45,1.0,2.4,81,0.00,,,0.02,WUHU216TE923,2013-07-14 23:04:00,
2013-07-14 19:09:00,80.6,74.3,30.14,NNE,23,1.3,2.2,81,0.00,,,0.02,WUHU216TE923,2013-07-14 23:09:00,
2013-07-14 19:14:00,80.4,74.1,30.14,NNE,23,1.7,4.0,81,0.00,,,0.02,WUHU216TE923,2013-07-14 23:14:00,
2013-07-14 19:19:00,80.8,74.5,30.14,NNE,23,2.7,4.0,81,0.00,,,0.02,WUHU216TE923,2013-07-14 23:19:00,
2013-07-14 19:24:00,80.8,74.5,30.14,NNE,23,2.7,4.6,81,0.00,,,0.02,WUHU216TE923,2013-07-14 23:24:00,
2013-07-14 19:29:00,80.8,74.5,30.14,NNE,23,2.8,4.6,81,0.00,,,0.02,WUHU216TE923,2013-07-14 23:29:00,
2013-07-14 19:34:00,80.8,74.5,30.14,NE,45,2.7,4.0,81,0.00,,,0.02,WUHU216TE923,2013-07-14 23:34:00,
2013-07-14 19:39:00,80.6,74.3,30.14,NNE,23,2.3,2.8,81,0.00,,,0.02,WUHU216TE923,2013-07-14 23:39:00,
2013-07-14 19:44:00,80.6,74.7,30.14,NNE,23,2.2,4.0,82,0.00,,,0.02,WUHU216TE923,2013-07-14 23:44:00,
2013-07-14 19:49:00,80.6,74.7,30.14,NNE,23,2.6,4.0,82,0.00,,,0.02,WUHU216TE923,2013-07-14 23:49:00,
2013-07-14 19:54:00,80.4,74.5,30.14,NNE,23,2.7,3.7,82,0.00,,,0.02,WUHU216TE923,2013-07-14 23:54:00,
2013-07-14 19:59:00,80.6,74.7,30.15,NNE,23,2.4,3.4,82,0.00,,,0.02,WUHU216TE923,2013-07-14 23:59:00,
2013-07-14 20:03:00,80.6,74.7,30.15,NNE,23,2.5,2.7,82,0.00,,,0.02,WUHU216TE923,2013-07-15 00:03:00,
2013-07-14 20:04:00,80.6,74.7,30.15,NNE,23,2.5,2.7,82,0.00,,,0.02,WUHU216TE923,2013-07-15 00:04:00,
2013-07-14 20:09:00,80.6,74.7,30.15,NNE,23,2.5,2.7,82,0.00,,,0.02,WUHU216TE923,2013-07-15 00:09:00,
2013-07-14 20:14:00,80.6,75.0,30.15,NNE,23,2.9,5.0,83,0.00,,,0.02,WUHU216TE923,2013-07-15 00:14:00,
2013-07-14 20:19:00,80.4,74.8,30.16,NNE,23,2.7,5.0,83,0.00,,,0.02,WUHU216TE923,2013-07-15 00:19:00,
2013-07-14 20:24:00,80.4,74.8,30.16,NNE,23,2.5,2.8,83,0.00,,,0.02,WUHU216TE923,2013-07-15 00:24:00,
2013-07-14 20:29:00,80.8,74.9,30.16,NNE,23,2.7,6.8,82,0.00,,,0.02,WUHU216TE923,2013-07-15 00:29:00,
2013-07-14 20:34:00,80.4,74.1,30.16,ENE,68,2.9,6.8,81,0.00,,,0.02,WUHU216TE923,2013-07-15 00:34:00,
2013-07-14 20:39:00,80.4,73.8,30.16,ENE,68,2.8,3.1,80,0.00,,,0.02,WUHU216TE923,2013-07-15 00:39:00,
2013-07-14 20:44:00,80.1,73.5,30.16,West,270,2.3,2.8,80,0.00,,,0.02,WUHU216TE923,2013-07-15 00:44:00,
2013-07-14 20:49:00,79.9,73.3,30.16,ENE,68,1.8,2.3,80,0.00,,,0.02,WUHU216TE923,2013-07-15 00:49:00,
2013-07-14 20:54:00,79.7,73.1,30.16,NNE,23,1.8,2.3,80,0.00,,,0.02,WUHU216TE923,2013-07-15 00:54:00,
2013-07-14 20:59:00,79.5,72.9,30.17,NE,45,1.7,2.3,80,0.00,,,0.02,WUHU216TE923,2013-07-15 00:59:00,
2013-07-14 21:04:00,79.5,72.9,30.17,NE,45,1.8,2.0,80,0.00,,,0.02,WUHU216TE923,2013-07-15 01:04:00,
2013-07-14 21:09:00,79.3,72.3,30.17,NE,45,2.1,2.4,79,0.00,,,0.02,WUHU216TE923,2013-07-15 01:09:00,
2013-07-14 21:14:00,79.3,72.7,30.17,East,90,1.9,2.4,80,0.00,,,0.02,WUHU216TE923,2013-07-15 01:14:00,
2013-07-14 21:19:00,79.3,72.7,30.18,NNE,23,1.6,2.3,80,0.00,,,0.02,WUHU216TE923,2013-07-15 01:19:00,
2013-07-14 21:24:00,79.3,72.7,30.18,NNE,23,1.5,2.3,80,0.00,,,0.02,WUHU216TE923,2013-07-15 01:24:00,
2013-07-14 21:29:00,79.0,72.4,30.18,ESE,113,1.2,1.9,80,0.00,,,0.02,WUHU216TE923,2013-07-15 01:29:00,
2013-07-14 21:34:00,78.8,72.2,30.18,NNE,23,0.7,1.4,80,0.00,,,0.02,WUHU216TE923,2013-07-15 01:34:00,
2013-07-14 21:39:00,78.6,72.0,30.18,East,90,0.5,1.4,80,0.00,,,0.02,WUHU216TE923,2013-07-15 01:39:00,
2013-07-14 21:44:00,78.6,72.0,30.18,NNE,23,0.9,1.3,80,0.00,,,0.02,WUHU216TE923,2013-07-15 01:44:00,
2013-07-14 21:49:00,78.4,71.8,30.18,NNE,23,1.2,1.4,80,0.00,,,0.02,WUHU216TE923,2013-07-15 01:49:00,
2013-07-14 21:54:00,78.3,71.7,30.18,NNE,23,1.0,1.8,80,0.00,,,0.02,WUHU216TE923,2013-07-15 01:54:00,
2013-07-14 21:59:00,78.1,71.5,30.19,NNE,23,0.8,1.8,80,0.00,,,0.02,WUHU216TE923,2013-07-15 01:59:00,
2013-07-14 22:04:00,78.1,71.5,30.19,ENE,68,0.4,1.3,80,0.00,,,0.02,WUHU216TE923,2013-07-15 02:04:00,
2013-07-14 22:09:00,78.1,71.9,30.19,East,90,0.6,1.4,81,0.00,,,0.02,WUHU216TE923,2013-07-15 02:09:00,
2013-07-14 22:14:00,77.9,71.7,30.19,NNE,23,0.5,1.4,81,0.00,,,0.02,WUHU216TE923,2013-07-15 02:14:00,
2013-07-14 22:19:00,77.9,71.7,30.19,NNE,23,0.9,1.7,81,0.00,,,0.02,WUHU216TE923,2013-07-15 02:19:00,
2013-07-14 22:24:00,77.9,71.7,30.19,NE,45,1.2,1.9,81,0.00,,,0.02,WUHU216TE923,2013-07-15 02:24:00,
2013-07-14 22:29:00,77.9,71.7,30.19,NNE,23,1.0,1.9,81,0.00,,,0.02,WUHU216TE923,2013-07-15 02:29:00,
2013-07-14 22:34:00,77.5,71.7,30.19,NNE,23,0.4,1.0,82,0.00,,,0.02,WUHU216TE923,2013-07-15 02:34:00,
2013-07-14 22:39:00,77.4,71.6,30.20,NNE,23,0.1,0.4,82,0.00,,,0.02,WUHU216TE923,2013-07-15 02:39:00,
2013-07-14 22:44:00,77.5,71.7,30.20,NNE,23,0.3,0.3,82,0.00,,,0.02,WUHU216TE923,2013-07-15 02:44:00,
2013-07-14 22:49:00,77.2,71.4,30.20,NNE,23,0.2,0.3,82,0.00,,,0.02,WUHU216TE923,2013-07-15 02:49:00,
2013-07-14 22:54:00,77.0,71.5,30.20,NNE,23,0.0,0.2,83,0.00,,,0.02,WUHU216TE923,2013-07-15 02:54:00,
2013-07-14 22:59:00,77.0,71.5,30.21,ESE,113,0.2,1.1,83,0.00,,,0.02,WUHU216TE923,2013-07-15 02:59:00,
2013-07-14 23:04:00,77.2,71.7,30.21,East,90,0.2,1.1,83,0.00,,,0.02,WUHU216TE923,2013-07-15 03:04:00,
2013-07-14 23:09:00,76.8,71.3,30.21,East,90,0.2,0.2,83,0.00,,,0.02,WUHU216TE923,2013-07-15 03:09:00,
2013-07-14 23:14:00,76.8,71.3,30.21,East,90,0.1,0.2,83,0.00,,,0.02,WUHU216TE923,2013-07-15 03:14:00,
2013-07-14 23:19:00,76.8,72.0,30.21,East,90,0.0,0.1,85,0.00,,,0.02,WUHU216TE923,2013-07-15 03:19:00,
2013-07-14 23:24:00,76.6,71.8,30.21,East,90,0.0,0.0,85,0.00,,,0.02,WUHU216TE923,2013-07-15 03:24:00,
2013-07-14 23:29:00,76.5,71.7,30.21,East,90,0.1,1.0,85,0.00,,,0.02,WUHU216TE923,2013-07-15 03:29:00,
2013-07-14 23:34:00,76.5,71.7,30.21,ENE,68,0.2,1.2,85,0.00,,,0.02,WUHU216TE923,2013-07-15 03:34:00,
2013-07-14 23:39:00,76.5,71.4,30.21,ESE,113,0.7,1.2,84,0.00,,,0.02,WUHU216TE923,2013-07-15 03:39:00,
2013-07-14 23:44:00,76.5,71.7,30.21,East,90,0.7,1.0,85,0.00,,,0.02,WUHU216TE923,2013-07-15 03:44:00,
2013-07-14 23:49:00,76.5,71.7,30.21,East,90,0.2,0.7,85,0.00,,,0.02,WUHU216TE923,2013-07-15 03:49:00,
2013-07-14 23:54:00,76.5,71.7,30.21,East,90,0.0,0.2,85,0.00,,,0.02,WUHU216TE923,2013-07-15 03:54:00,
2013-07-14 23:59:00,76.3,71.5,30.21,ENE,68,0.4,1.4,85,0.00,,,0.02,WUHU216TE923,2013-07-15 03:59:00,